sensor_id;sensor_type;location;lat;lon;timestamp;temperature;humidity
69598;SHT31;70000;51.176;-115.568;2023-05-07T00:02:01;13.29;49.18
69598;SHT31;70000;51.176;-115.568;2023-05-07T00:04:31;12.86;50.35
69598;SHT31;70000;51.176;-115.568;2023-05-07T00:07:07;12.48;49.73
69598;SHT31;70000;51.176;-115.568;2023-05-07T00:09:36;12.31;50.17
69598;SHT31;70000;51.176;-115.568;2023-05-07T00:12:06;12.10;50.60
69598;SHT31;70000;51.176;-115.568;2023-05-07T00:15:12;12.68;50.72
69598;SHT31;70000;51.176;-115.568;2023-05-07T00:17:41;12.42;51.61
69598;SHT31;70000;51.176;-115.568;2023-05-07T00:20:09;12.23;52.32
69598;SHT31;70000;51.176;-115.568;2023-05-07T00:22:39;12.28;52.56
69598;SHT31;70000;51.176;-115.568;2023-05-07T00:25:08;12.33;52.18
69598;SHT31;70000;51.176;-115.568;2023-05-07T00:27:37;12.56;52.33
69598;SHT31;70000;51.176;-115.568;2023-05-07T00:30:05;13.11;50.96
69598;SHT31;70000;51.176;-115.568;2023-05-07T00:32:35;14.41;49.31
69598;SHT31;70000;51.176;-115.568;2023-05-07T00:35:04;16.19;45.46
69598;SHT31;70000;51.176;-115.568;2023-05-07T00:37:34;16.22;44.33
69598;SHT31;70000;51.176;-115.568;2023-05-07T00:40:02;15.40;44.53
69598;SHT31;70000;51.176;-115.568;2023-05-07T00:42:34;14.53;45.89
69598;SHT31;70000;51.176;-115.568;2023-05-07T00:45:03;13.97;47.07
69598;SHT31;70000;51.176;-115.568;2023-05-07T00:47:32;13.63;47.75
69598;SHT31;70000;51.176;-115.568;2023-05-07T00:50:03;13.44;48.18
69598;SHT31;70000;51.176;-115.568;2023-05-07T00:52:33;13.18;48.74
69598;SHT31;70000;51.176;-115.568;2023-05-07T00:55:02;12.68;49.39
69598;SHT31;70000;51.176;-115.568;2023-05-07T00:57:37;12.06;50.68
69598;SHT31;70000;51.176;-115.568;2023-05-07T01:00:08;11.55;51.52
69598;SHT31;70000;51.176;-115.568;2023-05-07T01:02:40;11.11;52.32
69598;SHT31;70000;51.176;-115.568;2023-05-07T01:05:11;10.79;53.40
69598;SHT31;70000;51.176;-115.568;2023-05-07T01:07:44;10.58;53.85
69598;SHT31;70000;51.176;-115.568;2023-05-07T01:10:13;10.45;54.39
69598;SHT31;70000;51.176;-115.568;2023-05-07T01:12:43;10.27;54.69
69598;SHT31;70000;51.176;-115.568;2023-05-07T01:15:14;10.11;55.19
69598;SHT31;70000;51.176;-115.568;2023-05-07T01:17:42;9.94;55.65
69598;SHT31;70000;51.176;-115.568;2023-05-07T01:20:14;9.86;55.71
69598;SHT31;70000;51.176;-115.568;2023-05-07T01:22:46;9.88;55.81
69598;SHT31;70000;51.176;-115.568;2023-05-07T01:25:14;9.89;55.95
69598;SHT31;70000;51.176;-115.568;2023-05-07T01:27:43;9.82;56.06
69598;SHT31;70000;51.176;-115.568;2023-05-07T01:30:11;9.83;56.26
69598;SHT31;70000;51.176;-115.568;2023-05-07T01:32:48;9.68;56.48
69598;SHT31;70000;51.176;-115.568;2023-05-07T01:35:28;9.52;56.98
69598;SHT31;70000;51.176;-115.568;2023-05-07T01:38:03;9.48;56.92
69598;SHT31;70000;51.176;-115.568;2023-05-07T01:40:33;9.52;56.89
69598;SHT31;70000;51.176;-115.568;2023-05-07T01:46:19;9.31;57.66
69598;SHT31;70000;51.176;-115.568;2023-05-07T01:48:49;9.26;57.91
69598;SHT31;70000;51.176;-115.568;2023-05-07T01:51:20;9.18;58.30
69598;SHT31;70000;51.176;-115.568;2023-05-07T01:53:52;9.14;58.38
69598;SHT31;70000;51.176;-115.568;2023-05-07T01:56:22;9.12;58.39
69598;SHT31;70000;51.176;-115.568;2023-05-07T01:58:52;9.06;58.74
69598;SHT31;70000;51.176;-115.568;2023-05-07T02:01:21;9.00;59.01
69598;SHT31;70000;51.176;-115.568;2023-05-07T02:03:51;8.94;59.01
69598;SHT31;70000;51.176;-115.568;2023-05-07T02:06:21;8.98;58.77
69598;SHT31;70000;51.176;-115.568;2023-05-07T02:08:52;8.93;58.97
69598;SHT31;70000;51.176;-115.568;2023-05-07T02:11:21;8.89;58.81
69598;SHT31;70000;51.176;-115.568;2023-05-07T02:13:51;8.88;58.94
69598;SHT31;70000;51.176;-115.568;2023-05-07T02:16:20;8.77;59.29
69598;SHT31;70000;51.176;-115.568;2023-05-07T02:18:51;8.70;59.31
69598;SHT31;70000;51.176;-115.568;2023-05-07T02:21:21;8.67;59.22
69598;SHT31;70000;51.176;-115.568;2023-05-07T02:23:51;8.62;59.54
69598;SHT31;70000;51.176;-115.568;2023-05-07T02:30:02;8.43;60.16
69598;SHT31;70000;51.176;-115.568;2023-05-07T02:34:51;8.45;60.85
69598;SHT31;70000;51.176;-115.568;2023-05-07T02:37:21;8.49;62.58
69598;SHT31;70000;51.176;-115.568;2023-05-07T02:39:54;8.53;61.94
69598;SHT31;70000;51.176;-115.568;2023-05-07T02:42:24;8.58;64.95
69598;SHT31;70000;51.176;-115.568;2023-05-07T02:45:02;8.60;63.45
69598;SHT31;70000;51.176;-115.568;2023-05-07T02:47:39;8.49;63.17
69598;SHT31;70000;51.176;-115.568;2023-05-07T02:50:52;8.45;64.07
69598;SHT31;70000;51.176;-115.568;2023-05-07T02:53:24;8.52;64.28
69598;SHT31;70000;51.176;-115.568;2023-05-07T02:55:58;8.59;63.95
69598;SHT31;70000;51.176;-115.568;2023-05-07T02:58:37;8.54;62.87
69598;SHT31;70000;51.176;-115.568;2023-05-07T03:01:09;8.54;62.98
69598;SHT31;70000;51.176;-115.568;2023-05-07T03:03:49;8.56;62.81
69598;SHT31;70000;51.176;-115.568;2023-05-07T03:06:28;8.52;62.30
69598;SHT31;70000;51.176;-115.568;2023-05-07T03:09:43;8.41;62.15
69598;SHT31;70000;51.176;-115.568;2023-05-07T03:12:15;8.31;61.97
69598;SHT31;70000;51.176;-115.568;2023-05-07T03:20:27;8.06;62.10
69598;SHT31;70000;51.176;-115.568;2023-05-07T03:22:59;7.91;62.23
69598;SHT31;70000;51.176;-115.568;2023-05-07T03:25:39;7.79;62.55
69598;SHT31;70000;51.176;-115.568;2023-05-07T03:28:15;7.70;62.62
69598;SHT31;70000;51.176;-115.568;2023-05-07T03:30:53;7.66;62.83
69598;SHT31;70000;51.176;-115.568;2023-05-07T03:33:29;7.60;63.01
69598;SHT31;70000;51.176;-115.568;2023-05-07T03:36:12;7.53;63.42
69598;SHT31;70000;51.176;-115.568;2023-05-07T03:38:47;7.40;64.18
69598;SHT31;70000;51.176;-115.568;2023-05-07T03:41:17;7.31;64.07
69598;SHT31;70000;51.176;-115.568;2023-05-07T03:43:48;7.28;64.18
69598;SHT31;70000;51.176;-115.568;2023-05-07T03:46:17;7.27;64.21
69598;SHT31;70000;51.176;-115.568;2023-05-07T03:48:46;7.31;64.20
69598;SHT31;70000;51.176;-115.568;2023-05-07T03:51:15;7.33;64.18
69598;SHT31;70000;51.176;-115.568;2023-05-07T03:53:45;7.36;64.58
69598;SHT31;70000;51.176;-115.568;2023-05-07T03:56:17;7.34;64.57
69598;SHT31;70000;51.176;-115.568;2023-05-07T03:59:14;7.35;64.71
69598;SHT31;70000;51.176;-115.568;2023-05-07T04:02:03;7.29;65.17
69598;SHT31;70000;51.176;-115.568;2023-05-07T04:05:19;7.27;65.39
69598;SHT31;70000;51.176;-115.568;2023-05-07T04:08:14;7.28;65.29
69598;SHT31;70000;51.176;-115.568;2023-05-07T04:10:49;7.31;65.45
69598;SHT31;70000;51.176;-115.568;2023-05-07T04:13:27;7.29;65.68
69598;SHT31;70000;51.176;-115.568;2023-05-07T04:16:02;7.25;65.61
69598;SHT31;70000;51.176;-115.568;2023-05-07T04:18:39;7.22;65.84
69598;SHT31;70000;51.176;-115.568;2023-05-07T04:21:15;7.13;66.20
69598;SHT31;70000;51.176;-115.568;2023-05-07T04:23:47;7.11;66.22
69598;SHT31;70000;51.176;-115.568;2023-05-07T04:26:22;7.09;66.27
69598;SHT31;70000;51.176;-115.568;2023-05-07T04:28:56;7.11;66.21
69598;SHT31;70000;51.176;-115.568;2023-05-07T04:31:29;7.16;65.92
69598;SHT31;70000;51.176;-115.568;2023-05-07T04:34:05;7.19;66.08
69598;SHT31;70000;51.176;-115.568;2023-05-07T04:36:38;7.19;66.10
69598;SHT31;70000;51.176;-115.568;2023-05-07T04:39:10;7.15;66.23
69598;SHT31;70000;51.176;-115.568;2023-05-07T04:41:48;7.10;66.41
69598;SHT31;70000;51.176;-115.568;2023-05-07T04:44:17;7.05;66.47
69598;SHT31;70000;51.176;-115.568;2023-05-07T04:46:47;7.07;66.43
69598;SHT31;70000;51.176;-115.568;2023-05-07T04:49:19;7.07;66.80
69598;SHT31;70000;51.176;-115.568;2023-05-07T04:51:51;7.03;66.83
69598;SHT31;70000;51.176;-115.568;2023-05-07T04:54:26;7.02;66.67
69598;SHT31;70000;51.176;-115.568;2023-05-07T04:57:07;6.98;66.93
69598;SHT31;70000;51.176;-115.568;2023-05-07T04:59:39;6.99;66.88
69598;SHT31;70000;51.176;-115.568;2023-05-07T05:02:11;7.00;66.93
69598;SHT31;70000;51.176;-115.568;2023-05-07T05:04:49;7.00;66.83
69598;SHT31;70000;51.176;-115.568;2023-05-07T05:07:24;7.02;66.69
69598;SHT31;70000;51.176;-115.568;2023-05-07T05:09:56;7.09;66.39
69598;SHT31;70000;51.176;-115.568;2023-05-07T05:12:28;7.12;66.47
69598;SHT31;70000;51.176;-115.568;2023-05-07T05:15:00;7.13;66.62
69598;SHT31;70000;51.176;-115.568;2023-05-07T05:17:29;7.16;66.49
69598;SHT31;70000;51.176;-115.568;2023-05-07T05:19:59;7.17;66.54
69598;SHT31;70000;51.176;-115.568;2023-05-07T05:22:29;7.16;66.54
69598;SHT31;70000;51.176;-115.568;2023-05-07T05:25:02;7.14;66.65
69598;SHT31;70000;51.176;-115.568;2023-05-07T05:27:34;7.12;66.92
69598;SHT31;70000;51.176;-115.568;2023-05-07T05:30:16;7.06;67.12
69598;SHT31;70000;51.176;-115.568;2023-05-07T05:32:46;6.99;67.51
69598;SHT31;70000;51.176;-115.568;2023-05-07T05:35:16;6.97;67.64
69598;SHT31;70000;51.176;-115.568;2023-05-07T05:37:45;6.99;67.71
69598;SHT31;70000;51.176;-115.568;2023-05-07T05:40:15;6.99;67.92
69598;SHT31;70000;51.176;-115.568;2023-05-07T05:42:44;6.98;68.08
69598;SHT31;70000;51.176;-115.568;2023-05-07T05:45:13;6.98;68.20
69598;SHT31;70000;51.176;-115.568;2023-05-07T05:47:45;7.01;67.99
69598;SHT31;70000;51.176;-115.568;2023-05-07T05:50:14;7.03;68.04
69598;SHT31;70000;51.176;-115.568;2023-05-07T05:52:43;7.04;68.09
69598;SHT31;70000;51.176;-115.568;2023-05-07T05:55:12;7.05;68.17
69598;SHT31;70000;51.176;-115.568;2023-05-07T05:57:41;7.02;68.50
69598;SHT31;70000;51.176;-115.568;2023-05-07T06:00:10;6.99;68.60
69598;SHT31;70000;51.176;-115.568;2023-05-07T06:02:40;6.98;68.76
69598;SHT31;70000;51.176;-115.568;2023-05-07T06:05:10;6.95;69.00
69598;SHT31;70000;51.176;-115.568;2023-05-07T06:07:39;6.93;69.30
69598;SHT31;70000;51.176;-115.568;2023-05-07T06:10:08;6.88;69.34
69598;SHT31;70000;51.176;-115.568;2023-05-07T06:12:39;6.83;69.58
69598;SHT31;70000;51.176;-115.568;2023-05-07T06:15:08;6.86;69.55
69598;SHT31;70000;51.176;-115.568;2023-05-07T06:17:38;6.89;69.53
69598;SHT31;70000;51.176;-115.568;2023-05-07T06:20:07;6.93;69.71
69598;SHT31;70000;51.176;-115.568;2023-05-07T06:22:37;6.94;69.65
69598;SHT31;70000;51.176;-115.568;2023-05-07T06:25:06;6.93;69.77
69598;SHT31;70000;51.176;-115.568;2023-05-07T06:27:36;6.85;70.16
69598;SHT31;70000;51.176;-115.568;2023-05-07T06:30:07;6.83;70.29
69598;SHT31;70000;51.176;-115.568;2023-05-07T06:32:37;6.80;70.54
69598;SHT31;70000;51.176;-115.568;2023-05-07T06:35:08;6.79;70.64
69598;SHT31;70000;51.176;-115.568;2023-05-07T06:37:38;6.74;70.71
69598;SHT31;70000;51.176;-115.568;2023-05-07T06:40:07;6.71;70.78
69598;SHT31;70000;51.176;-115.568;2023-05-07T06:42:37;6.67;71.01
69598;SHT31;70000;51.176;-115.568;2023-05-07T06:45:07;6.65;71.13
69598;SHT31;70000;51.176;-115.568;2023-05-07T06:47:37;6.58;71.37
69598;SHT31;70000;51.176;-115.568;2023-05-07T06:50:07;6.53;71.74
69598;SHT31;70000;51.176;-115.568;2023-05-07T06:52:37;6.50;71.94
69598;SHT31;70000;51.176;-115.568;2023-05-07T06:55:06;6.50;72.03
69598;SHT31;70000;51.176;-115.568;2023-05-07T06:57:37;6.51;72.15
69598;SHT31;70000;51.176;-115.568;2023-05-07T07:00:07;6.50;72.08
69598;SHT31;70000;51.176;-115.568;2023-05-07T07:02:37;6.49;72.20
69598;SHT31;70000;51.176;-115.568;2023-05-07T07:05:07;6.46;72.26
69598;SHT31;70000;51.176;-115.568;2023-05-07T07:07:38;6.45;72.32
69598;SHT31;70000;51.176;-115.568;2023-05-07T07:10:07;6.41;72.42
69598;SHT31;70000;51.176;-115.568;2023-05-07T07:12:37;6.37;72.58
69598;SHT31;70000;51.176;-115.568;2023-05-07T07:15:06;6.32;72.85
69598;SHT31;70000;51.176;-115.568;2023-05-07T07:17:36;6.29;72.92
69598;SHT31;70000;51.176;-115.568;2023-05-07T07:20:05;6.29;72.86
69598;SHT31;70000;51.176;-115.568;2023-05-07T07:22:37;6.31;72.85
69598;SHT31;70000;51.176;-115.568;2023-05-07T07:25:12;6.31;72.96
69598;SHT31;70000;51.176;-115.568;2023-05-07T07:27:41;6.31;73.17
69598;SHT31;70000;51.176;-115.568;2023-05-07T07:30:10;6.30;73.06
69598;SHT31;70000;51.176;-115.568;2023-05-07T07:32:39;6.31;72.94
69598;SHT31;70000;51.176;-115.568;2023-05-07T07:35:08;6.28;73.01
69598;SHT31;70000;51.176;-115.568;2023-05-07T07:37:37;6.24;73.01
69598;SHT31;70000;51.176;-115.568;2023-05-07T07:40:06;6.26;72.88
69598;SHT31;70000;51.176;-115.568;2023-05-07T07:42:37;6.24;73.02
69598;SHT31;70000;51.176;-115.568;2023-05-07T07:45:06;6.21;72.97
69598;SHT31;70000;51.176;-115.568;2023-05-07T07:47:36;6.24;72.98
69598;SHT31;70000;51.176;-115.568;2023-05-07T07:50:06;6.25;72.97
69598;SHT31;70000;51.176;-115.568;2023-05-07T07:52:37;6.25;73.12
69598;SHT31;70000;51.176;-115.568;2023-05-07T07:55:07;6.26;73.22
69598;SHT31;70000;51.176;-115.568;2023-05-07T07:57:37;6.22;73.23
69598;SHT31;70000;51.176;-115.568;2023-05-07T08:00:06;6.22;73.13
69598;SHT31;70000;51.176;-115.568;2023-05-07T08:02:37;6.25;72.94
69598;SHT31;70000;51.176;-115.568;2023-05-07T08:05:06;6.27;72.67
69598;SHT31;70000;51.176;-115.568;2023-05-07T08:07:35;6.33;72.70
69598;SHT31;70000;51.176;-115.568;2023-05-07T08:10:05;6.35;73.05
69598;SHT31;70000;51.176;-115.568;2023-05-07T08:12:34;6.30;72.96
69598;SHT31;70000;51.176;-115.568;2023-05-07T08:15:03;6.32;72.77
69598;SHT31;70000;51.176;-115.568;2023-05-07T08:17:38;6.38;72.37
69598;SHT31;70000;51.176;-115.568;2023-05-07T08:20:09;6.43;72.03
69598;SHT31;70000;51.176;-115.568;2023-05-07T08:22:39;6.45;72.11
69598;SHT31;70000;51.176;-115.568;2023-05-07T08:25:11;6.47;72.06
69598;SHT31;70000;51.176;-115.568;2023-05-07T08:27:49;6.48;72.30
69598;SHT31;70000;51.176;-115.568;2023-05-07T08:30:21;6.47;72.31
69598;SHT31;70000;51.176;-115.568;2023-05-07T08:32:50;6.49;72.32
69598;SHT31;70000;51.176;-115.568;2023-05-07T08:35:19;6.47;72.37
69598;SHT31;70000;51.176;-115.568;2023-05-07T08:37:48;6.47;72.41
69598;SHT31;70000;51.176;-115.568;2023-05-07T08:40:17;6.44;72.53
69598;SHT31;70000;51.176;-115.568;2023-05-07T08:42:48;6.44;72.58
69598;SHT31;70000;51.176;-115.568;2023-05-07T08:45:20;6.42;72.61
69598;SHT31;70000;51.176;-115.568;2023-05-07T08:47:55;6.36;72.70
69598;SHT31;70000;51.176;-115.568;2023-05-07T08:50:29;6.35;72.76
69598;SHT31;70000;51.176;-115.568;2023-05-07T08:52:58;6.31;72.78
69598;SHT31;70000;51.176;-115.568;2023-05-07T08:55:28;6.26;72.88
69598;SHT31;70000;51.176;-115.568;2023-05-07T08:57:57;6.21;73.13
69598;SHT31;70000;51.176;-115.568;2023-05-07T09:00:27;6.16;73.21
69598;SHT31;70000;51.176;-115.568;2023-05-07T09:02:56;6.11;73.15
69598;SHT31;70000;51.176;-115.568;2023-05-07T09:05:25;6.10;73.08
69598;SHT31;70000;51.176;-115.568;2023-05-07T09:07:54;6.09;73.17
69598;SHT31;70000;51.176;-115.568;2023-05-07T09:10:23;6.06;73.38
69598;SHT31;70000;51.176;-115.568;2023-05-07T09:12:54;6.05;73.25
69598;SHT31;70000;51.176;-115.568;2023-05-07T09:15:26;6.02;73.49
69598;SHT31;70000;51.176;-115.568;2023-05-07T09:17:59;6.03;73.35
69598;SHT31;70000;51.176;-115.568;2023-05-07T09:20:32;6.08;73.14
69598;SHT31;70000;51.176;-115.568;2023-05-07T09:23:03;6.09;73.26
69598;SHT31;70000;51.176;-115.568;2023-05-07T09:25:35;6.12;73.21
69598;SHT31;70000;51.176;-115.568;2023-05-07T09:28:05;6.15;73.21
69598;SHT31;70000;51.176;-115.568;2023-05-07T09:30:38;6.17;73.42
69598;SHT31;70000;51.176;-115.568;2023-05-07T09:33:07;6.16;73.64
69598;SHT31;70000;51.176;-115.568;2023-05-07T09:35:37;6.14;73.73
69598;SHT31;70000;51.176;-115.568;2023-05-07T09:38:07;6.07;74.09
69598;SHT31;70000;51.176;-115.568;2023-05-07T09:40:37;6.02;74.16
69598;SHT31;70000;51.176;-115.568;2023-05-07T09:43:12;6.01;74.23
69598;SHT31;70000;51.176;-115.568;2023-05-07T09:45:45;5.98;74.17
69598;SHT31;70000;51.176;-115.568;2023-05-07T09:48:18;6.00;74.03
69598;SHT31;70000;51.176;-115.568;2023-05-07T09:50:51;6.01;73.92
69598;SHT31;70000;51.176;-115.568;2023-05-07T09:53:29;6.05;73.85
69598;SHT31;70000;51.176;-115.568;2023-05-07T09:56:02;6.06;73.76
69598;SHT31;70000;51.176;-115.568;2023-05-07T09:58:36;6.06;73.89
69598;SHT31;70000;51.176;-115.568;2023-05-07T10:01:10;6.07;73.96
69598;SHT31;70000;51.176;-115.568;2023-05-07T10:03:40;6.01;74.20
69598;SHT31;70000;51.176;-115.568;2023-05-07T10:06:13;5.95;74.45
69598;SHT31;70000;51.176;-115.568;2023-05-07T10:08:47;5.94;74.46
69598;SHT31;70000;51.176;-115.568;2023-05-07T10:11:19;5.90;74.82
69598;SHT31;70000;51.176;-115.568;2023-05-07T10:13:50;5.85;74.86
69598;SHT31;70000;51.176;-115.568;2023-05-07T10:16:21;5.87;74.79
69598;SHT31;70000;51.176;-115.568;2023-05-07T10:18:54;5.90;74.78
69598;SHT31;70000;51.176;-115.568;2023-05-07T10:21:25;5.93;74.88
69598;SHT31;70000;51.176;-115.568;2023-05-07T10:24:00;5.93;74.86
69598;SHT31;70000;51.176;-115.568;2023-05-07T10:26:44;5.93;74.97
69598;SHT31;70000;51.176;-115.568;2023-05-07T10:32:14;5.91;75.05
69598;SHT31;70000;51.176;-115.568;2023-05-07T10:35:19;5.89;75.09
69598;SHT31;70000;51.176;-115.568;2023-05-07T10:37:53;5.91;74.98
69598;SHT31;70000;51.176;-115.568;2023-05-07T10:40:23;5.95;74.55
69598;SHT31;70000;51.176;-115.568;2023-05-07T10:42:59;6.01;74.25
69598;SHT31;70000;51.176;-115.568;2023-05-07T10:45:36;6.04;74.30
69598;SHT31;70000;51.176;-115.568;2023-05-07T10:48:05;6.01;74.74
69598;SHT31;70000;51.176;-115.568;2023-05-07T10:56:40;5.93;75.25
69598;SHT31;70000;51.176;-115.568;2023-05-07T11:02:04;5.92;75.16
69598;SHT31;70000;51.176;-115.568;2023-05-07T11:04:38;5.91;75.19
69598;SHT31;70000;51.176;-115.568;2023-05-07T11:07:29;5.90;75.16
69598;SHT31;70000;51.176;-115.568;2023-05-07T11:09:59;5.88;75.26
69598;SHT31;70000;51.176;-115.568;2023-05-07T11:15:09;5.95;74.75
69598;SHT31;70000;51.176;-115.568;2023-05-07T11:17:58;5.97;74.77
69598;SHT31;70000;51.176;-115.568;2023-05-07T11:24:02;5.94;75.16
69598;SHT31;70000;51.176;-115.568;2023-05-07T11:26:06;5.88;75.50
69598;SHT31;70000;51.176;-115.568;2023-05-07T11:28:38;5.86;75.49
69598;SHT31;70000;51.176;-115.568;2023-05-07T11:31:09;5.86;75.63
69598;SHT31;70000;51.176;-115.568;2023-05-07T11:33:43;5.81;75.74
69598;SHT31;70000;51.176;-115.568;2023-05-07T11:36:13;5.81;75.61
69598;SHT31;70000;51.176;-115.568;2023-05-07T11:38:42;5.90;75.30
69598;SHT31;70000;51.176;-115.568;2023-05-07T11:41:11;5.95;75.19
69598;SHT31;70000;51.176;-115.568;2023-05-07T11:44:01;5.97;75.32
69598;SHT31;70000;51.176;-115.568;2023-05-07T11:46:29;5.91;75.46
69598;SHT31;70000;51.176;-115.568;2023-05-07T11:48:58;5.95;75.33
69598;SHT31;70000;51.176;-115.568;2023-05-07T11:51:29;5.89;75.51
69598;SHT31;70000;51.176;-115.568;2023-05-07T11:53:59;5.85;75.62
69598;SHT31;70000;51.176;-115.568;2023-05-07T11:56:34;5.88;75.27
69598;SHT31;70000;51.176;-115.568;2023-05-07T11:59:03;5.96;74.88
69598;SHT31;70000;51.176;-115.568;2023-05-07T12:01:36;6.03;74.54
69598;SHT31;70000;51.176;-115.568;2023-05-07T12:04:05;6.06;74.46
69598;SHT31;70000;51.176;-115.568;2023-05-07T12:06:37;6.08;74.29
69598;SHT31;70000;51.176;-115.568;2023-05-07T12:09:07;6.09;74.33
69598;SHT31;70000;51.176;-115.568;2023-05-07T12:11:39;6.07;74.52
69598;SHT31;70000;51.176;-115.568;2023-05-07T12:14:08;5.95;74.83
69598;SHT31;70000;51.176;-115.568;2023-05-07T12:16:39;5.91;74.99
69598;SHT31;70000;51.176;-115.568;2023-05-07T12:19:08;5.91;75.12
69598;SHT31;70000;51.176;-115.568;2023-05-07T12:21:42;5.92;75.10
69598;SHT31;70000;51.176;-115.568;2023-05-07T12:24:14;5.98;74.97
69598;SHT31;70000;51.176;-115.568;2023-05-07T12:26:43;5.96;75.00
69598;SHT31;70000;51.176;-115.568;2023-05-07T12:29:12;5.96;75.06
69598;SHT31;70000;51.176;-115.568;2023-05-07T12:31:44;5.95;75.12
69598;SHT31;70000;51.176;-115.568;2023-05-07T12:34:13;5.97;74.98
69598;SHT31;70000;51.176;-115.568;2023-05-07T12:36:45;5.98;75.09
69598;SHT31;70000;51.176;-115.568;2023-05-07T12:39:16;5.93;75.28
69598;SHT31;70000;51.176;-115.568;2023-05-07T12:41:55;5.92;75.36
69598;SHT31;70000;51.176;-115.568;2023-05-07T12:44:32;5.95;75.31
69598;SHT31;70000;51.176;-115.568;2023-05-07T12:47:03;5.93;75.44
69598;SHT31;70000;51.176;-115.568;2023-05-07T12:49:34;5.91;75.51
69598;SHT31;70000;51.176;-115.568;2023-05-07T12:52:06;5.92;75.50
69598;SHT31;70000;51.176;-115.568;2023-05-07T12:54:37;5.97;75.41
69598;SHT31;70000;51.176;-115.568;2023-05-07T12:57:07;5.98;75.37
69598;SHT31;70000;51.176;-115.568;2023-05-07T12:59:40;6.03;75.09
69598;SHT31;70000;51.176;-115.568;2023-05-07T13:02:13;6.10;74.68
69598;SHT31;70000;51.176;-115.568;2023-05-07T13:04:44;6.14;74.64
69598;SHT31;70000;51.176;-115.568;2023-05-07T13:07:13;6.14;74.62
69598;SHT31;70000;51.176;-115.568;2023-05-07T13:09:42;6.20;74.42
69598;SHT31;70000;51.176;-115.568;2023-05-07T13:12:11;6.23;74.33
69598;SHT31;70000;51.176;-115.568;2023-05-07T13:14:40;6.31;74.07
69598;SHT31;70000;51.176;-115.568;2023-05-07T13:17:08;6.34;73.94
69598;SHT31;70000;51.176;-115.568;2023-05-07T13:19:38;6.37;73.81
69598;SHT31;70000;51.176;-115.568;2023-05-07T13:22:09;6.38;73.86
69598;SHT31;70000;51.176;-115.568;2023-05-07T13:24:40;6.33;74.08
69598;SHT31;70000;51.176;-115.568;2023-05-07T13:27:11;6.29;74.17
69598;SHT31;70000;51.176;-115.568;2023-05-07T13:29:40;6.26;74.30
69598;SHT31;70000;51.176;-115.568;2023-05-07T13:32:09;6.26;74.28
69598;SHT31;70000;51.176;-115.568;2023-05-07T13:34:38;6.31;74.25
69598;SHT31;70000;51.176;-115.568;2023-05-07T13:37:07;6.31;74.32
69598;SHT31;70000;51.176;-115.568;2023-05-07T13:39:37;6.32;74.49
69598;SHT31;70000;51.176;-115.568;2023-05-07T13:42:08;6.31;74.52
69598;SHT31;70000;51.176;-115.568;2023-05-07T13:44:37;6.37;74.45
69598;SHT31;70000;51.176;-115.568;2023-05-07T13:47:11;6.47;74.25
69598;SHT31;70000;51.176;-115.568;2023-05-07T13:49:42;6.61;73.76
69598;SHT31;70000;51.176;-115.568;2023-05-07T13:52:11;6.76;73.27
69598;SHT31;70000;51.176;-115.568;2023-05-07T13:54:39;6.91;72.88
69598;SHT31;70000;51.176;-115.568;2023-05-07T13:57:08;7.01;72.70
69598;SHT31;70000;51.176;-115.568;2023-05-07T13:59:37;7.07;72.50
69598;SHT31;70000;51.176;-115.568;2023-05-07T14:02:07;7.24;72.16
69598;SHT31;70000;51.176;-115.568;2023-05-07T14:04:37;7.39;71.60
69598;SHT31;70000;51.176;-115.568;2023-05-07T14:07:06;7.47;71.25
69598;SHT31;70000;51.176;-115.568;2023-05-07T14:09:35;7.55;71.05
69598;SHT31;70000;51.176;-115.568;2023-05-07T14:12:05;7.64;70.80
69598;SHT31;70000;51.176;-115.568;2023-05-07T14:14:35;7.72;70.66
69598;SHT31;70000;51.176;-115.568;2023-05-07T14:17:04;7.75;70.59
69598;SHT31;70000;51.176;-115.568;2023-05-07T14:19:36;7.65;70.95
69598;SHT31;70000;51.176;-115.568;2023-05-07T14:22:05;7.74;70.78
69598;SHT31;70000;51.176;-115.568;2023-05-07T14:24:35;7.86;70.12
69598;SHT31;70000;51.176;-115.568;2023-05-07T14:27:04;7.88;69.80
69598;SHT31;70000;51.176;-115.568;2023-05-07T14:29:34;7.90;69.87
69598;SHT31;70000;51.176;-115.568;2023-05-07T14:32:04;8.02;69.52
69598;SHT31;70000;51.176;-115.568;2023-05-07T14:34:48;8.04;69.14
69598;SHT31;70000;51.176;-115.568;2023-05-07T14:37:18;8.02;69.30
69598;SHT31;70000;51.176;-115.568;2023-05-07T14:39:47;8.13;69.15
69598;SHT31;70000;51.176;-115.568;2023-05-07T14:42:17;8.19;68.99
69598;SHT31;70000;51.176;-115.568;2023-05-07T14:44:47;8.21;68.91
69598;SHT31;70000;51.176;-115.568;2023-05-07T14:47:16;8.28;68.85
69598;SHT31;70000;51.176;-115.568;2023-05-07T14:49:46;8.31;68.91
69598;SHT31;70000;51.176;-115.568;2023-05-07T14:52:15;8.34;69.09
69598;SHT31;70000;51.176;-115.568;2023-05-07T14:54:45;8.42;68.61
69598;SHT31;70000;51.176;-115.568;2023-05-07T14:57:14;8.58;68.18
69598;SHT31;70000;51.176;-115.568;2023-05-07T14:59:46;8.69;67.65
69598;SHT31;70000;51.176;-115.568;2023-05-07T15:02:16;8.72;67.37
69598;SHT31;70000;51.176;-115.568;2023-05-07T15:04:47;8.85;67.12
69598;SHT31;70000;51.176;-115.568;2023-05-07T15:07:16;8.95;66.75
69598;SHT31;70000;51.176;-115.568;2023-05-07T15:09:45;9.01;66.60
69598;SHT31;70000;51.176;-115.568;2023-05-07T15:12:15;9.07;66.50
69598;SHT31;70000;51.176;-115.568;2023-05-07T15:14:45;9.01;66.46
69598;SHT31;70000;51.176;-115.568;2023-05-07T15:17:17;9.05;66.77
69598;SHT31;70000;51.176;-115.568;2023-05-07T15:19:46;9.17;66.49
69598;SHT31;70000;51.176;-115.568;2023-05-07T15:22:19;9.43;66.23
69598;SHT31;70000;51.176;-115.568;2023-05-07T15:24:49;9.68;65.32
69598;SHT31;70000;51.176;-115.568;2023-05-07T15:27:18;9.81;65.11
69598;SHT31;70000;51.176;-115.568;2023-05-07T15:29:48;9.93;64.46
69598;SHT31;70000;51.176;-115.568;2023-05-07T15:32:17;10.09;63.98
69598;SHT31;70000;51.176;-115.568;2023-05-07T15:34:47;10.32;63.50
69598;SHT31;70000;51.176;-115.568;2023-05-07T15:37:17;10.61;62.81
69598;SHT31;70000;51.176;-115.568;2023-05-07T15:39:46;10.82;62.24
69598;SHT31;70000;51.176;-115.568;2023-05-07T15:42:16;11.04;61.47
69598;SHT31;70000;51.176;-115.568;2023-05-07T15:44:45;11.25;61.02
69598;SHT31;70000;51.176;-115.568;2023-05-07T15:47:16;11.50;60.40
69598;SHT31;70000;51.176;-115.568;2023-05-07T15:49:45;11.73;59.35
69598;SHT31;70000;51.176;-115.568;2023-05-07T15:52:14;11.95;58.87
69598;SHT31;70000;51.176;-115.568;2023-05-07T15:54:44;12.10;58.56
69598;SHT31;70000;51.176;-115.568;2023-05-07T15:57:14;12.46;57.77
69598;SHT31;70000;51.176;-115.568;2023-05-07T15:59:43;12.62;56.33
69598;SHT31;70000;51.176;-115.568;2023-05-07T16:02:13;12.62;56.23